New Bern, NC

2:56 PM EST on December 06, 2016 (GMT -0500)
Craven County Regional | | Change Station

Elev 16 ft 35.07 °N, 77.05 °W | Updated 16 minutes ago

Partly Cloudy
Partly Cloudy
67 °F
Feels Like 67 °F
N
12
Wind Variable Wind from SE

Today
High -- | Low -- °F
--% Chance of Precip.
Yesterday
High -- | Low -- °F
Precip. -- in
Pressure 29.61 in
Visibility 10.0 miles
Clouds Few 500 ft
Dew Point 64 °F
Humidity 90%
Rainfall 0.73 in
Snow Depth Not available.
7:02 AM 4:56 PM
Waxing Crescent, 44% visible
SPECI KEWN 061940Z 13010KT 10SM FEW005 19/18 A2961 RMK AO2 T01940178
Pressure 29.61 in
Visibility 10.0 miles
Clouds Few 500 ft
Dew Point 64 °F
Humidity 90%
Rainfall 0.73 in
Snow Depth Not available.
7:02 AM 4:56 PM
Waxing Crescent, 44% visible
SPECI KEWN 061940Z 13010KT 10SM FEW005 19/18 A2961 RMK AO2 T01940178

10-Day Weather Forecast

Almanac

Astronomy

Dec. 06, 2016 Rise Set
Actual Time
Civil Twilight
Nautical Twilight
Astronomical Twilight
Moon
Length of Visible Light
Length of Day
Tomorrow will be .
, % of the Moon is Illuminated

Today's Extremes

State Highs State Lows

Community

WunderPhotos

Upload Photos

1,956,020 photos uploaded!

WunderBlog® & News

Nearby

Air Quality

  Air Quality AQ Index Pollutant
Not available.

Snow Depth

Station Depth Elevation

Earthquake Activity

City Distance Mag. Time & Date
Minimum magnitude displayed is 2.5.

Coastal Water Temperatures

Place Temperature

Stations

Nearby Weather Stations

Station Location Temp. Windchill Dew Point Humidity Wind Precip. Elev Updated Type
                   

Watches & Warnings

There are currently no watches in effect.